Time;durP1;ratioP1;P1;durP2;ratioP2;P2;SDS_P1;SDS_P2;PMS_P1;PMS_P2;Temp;Humidity;BMP_temperature;BMP_pressure;BME280_temperature;BME280_humidity;BME280_pressure;Samples;Min_cycle;Max_cycle;Signal;HPM_P1;HPM_P2
2021/06/19 00:02:13;;;;;;;6.53;4.75;;;;;;;19.38;62.71;96872.56;127579;1093;113602;-88
2021/06/19 00:04:44;;;;;;;4.78;4.28;;;;;;;19.39;62.61;96866.06;127705;1093;23524;-89
2021/06/19 00:07:15;;;;;;;6.53;4.68;;;;;;;19.42;62.72;96872.69;127941;1093;113488;-89
2021/06/19 00:09:47;;;;;;;5.20;4.48;;;;;;;19.40;62.55;96872.23;128004;1093;26066;-89
2021/06/19 00:12:19;;;;;;;7.30;5.08;;;;;;;19.42;62.65;96867.30;127984;1093;47549;-88
2021/06/19 00:14:50;;;;;;;6.80;4.88;;;;;;;19.42;62.45;96867.30;127742;1093;113767;-89
2021/06/19 00:17:21;;;;;;;5.00;4.48;;;;;;;19.38;62.53;96869.88;127946;1093;23806;-90
2021/06/19 00:19:53;;;;;;;5.20;4.70;;;;;;;19.32;62.52;96870.41;127625;1093;113442;-88
2021/06/19 00:22:24;;;;;;;7.40;4.73;;;;;;;18.98;62.21;96869.52;127983;1093;22832;-89
2021/06/19 00:24:55;;;;;;;5.80;4.88;;;;;;;18.47;63.40;96865.98;127873;1092;113653;-88
2021/06/19 00:27:27;;;;;;;8.55;5.10;;;;;;;18.34;63.69;96867.77;128011;1092;22873;-87
2021/06/19 00:29:58;;;;;;;4.98;4.48;;;;;;;18.34;64.68;96869.66;127984;1092;22812;-88
2021/06/19 00:32:30;;;;;;;5.28;4.63;;;;;;;18.43;64.85;96865.02;127881;1092;114379;-88
2021/06/19 00:35:02;;;;;;;8.00;4.88;;;;;;;18.53;65.08;96869.26;127997;1092;23348;-88
2021/06/19 00:37:33;;;;;;;6.33;4.90;;;;;;;18.55;65.12;96864.34;127801;1093;113324;-88
2021/06/19 00:40:08;;;;;;;6.73;5.08;;;;;;;18.59;65.32;96857.24;127943;1093;55422;-89
2021/06/19 00:42:40;;;;;;;5.63;5.03;;;;;;;18.58;64.82;96867.20;127829;1093;114483;-92
2021/06/19 00:45:12;;;;;;;5.43;4.68;;;;;;;18.22;64.88;96862.27;127939;1093;22799;-88
2021/06/19 00:47:44;;;;;;;6.13;5.05;;;;;;;18.14;65.42;96868.45;127933;1093;29075;-89
2021/06/19 00:50:17;;;;;;;6.85;5.25;;;;;;;18.00;65.26;96865.16;127852;1093;113296;-88
2021/06/19 00:52:49;;;;;;;5.25;4.60;;;;;;;17.76;65.90;96866.49;127895;1093;45344;-88
2021/06/19 00:55:21;;;;;;;5.88;5.23;;;;;;;17.82;66.72;96863.63;127824;1093;114184;-89
2021/06/19 00:57:52;;;;;;;5.60;4.50;;;;;;;17.90;66.24;96858.27;127882;1093;39496;-88
2021/06/19 01:00:25;;;;;;;7.50;5.15;;;;;;;17.77;66.85;96851.97;127900;1092;56981;-89
2021/06/19 01:02:59;;;;;;;5.60;4.63;;;;;;;17.78;67.25;96850.87;127823;1093;113333;-88
2021/06/19 01:05:32;;;;;;;7.20;4.93;;;;;;;17.88;67.36;96851.65;127929;1093;26524;-88
2021/06/19 01:08:04;;;;;;;6.60;5.63;;;;;;;17.86;67.20;96848.47;127856;1093;113495;-89
2021/06/19 01:10:35;;;;;;;6.55;4.68;;;;;;;17.93;67.44;96856.83;127968;1093;39238;-88
2021/06/19 01:13:07;;;;;;;5.68;4.45;;;;;;;18.02;67.32;96850.34;127832;1093;113956;-88
2021/06/19 01:15:38;;;;;;;7.10;4.40;;;;;;;18.03;67.02;96845.77;127924;1093;25411;-88
2021/06/19 01:18:10;;;;;;;5.93;4.30;;;;;;;17.86;67.16;96843.11;127868;1093;38867;-89
2021/06/19 01:20:41;;;;;;;6.20;5.00;;;;;;;17.84;67.89;96842.64;127764;1093;113769;-88
2021/06/19 01:23:12;;;;;;;7.18;4.88;;;;;;;18.00;67.65;96843.70;127938;1093;23441;-87
2021/06/19 01:25:44;;;;;;;5.75;5.15;;;;;;;17.87;67.42;96840.11;127854;1092;113554;-91
2021/06/19 01:28:15;;;;;;;5.18;4.40;;;;;;;17.87;67.70;96836.63;127953;1093;25631;-90
2021/06/19 01:30:48;;;;;;;6.23;4.23;;;;;;;17.94;67.33;96836.95;127838;1093;113900;-89
2021/06/19 01:33:20;;;;;;;5.73;4.55;;;;;;;17.74;67.41;96833.84;127897;1093;22939;-90
2021/06/19 01:35:52;;;;;;;6.60;4.65;;;;;;;17.62;67.68;96830.99;127906;1092;23791;-90
2021/06/19 01:38:23;;;;;;;7.20;4.55;;;;;;;17.56;68.12;96832.25;127794;1093;114234;-88
2021/06/19 01:40:55;;;;;;;6.48;4.95;;;;;;;17.55;68.49;96840.61;127864;1093;53958;-90
2021/06/19 01:43:26;;;;;;;6.43;4.63;;;;;;;17.56;68.53;96839.50;127847;1093;113510;-87
2021/06/19 01:45:57;;;;;;;7.60;5.15;;;;;;;17.40;68.24;96833.84;127885;1093;22807;-88
2021/06/19 01:48:29;;;;;;;6.45;4.60;;;;;;;17.19;68.99;96836.38;127955;1093;22829;-88
2021/06/19 01:51:00;;;;;;;4.48;4.03;;;;;;;17.15;68.89;96836.20;127759;1093;113718;-87
2021/06/19 01:53:31;;;;;;;5.35;4.48;;;;;;;17.00;69.63;96839.34;127947;1092;25920;-88
2021/06/19 01:56:03;;;;;;;6.63;5.10;;;;;;;16.95;70.24;96839.50;127832;1093;113505;-89
2021/06/19 01:58:34;;;;;;;5.88;5.08;;;;;;;16.96;70.64;96841.08;127956;1092;25271;-87
2021/06/19 02:01:07;;;;;;;8.33;5.28;;;;;;;16.97;70.57;96842.65;127677;1093;113809;-88
2021/06/19 02:03:38;;;;;;;6.45;5.30;;;;;;;17.04;71.00;96842.98;127812;1093;22665;-87
2021/06/19 02:06:11;;;;;;;5.37;4.80;;;;;;;17.22;71.14;96843.78;127942;1093;54262;-87
2021/06/19 02:08:47;;;;;;;7.85;5.25;;;;;;;17.37;70.81;96845.20;127846;1093;114662;-88
2021/06/19 02:11:18;;;;;;;7.30;5.18;;;;;;;17.48;70.60;96851.82;127986;1093;44602;-86
2021/06/19 02:13:50;;;;;;;6.45;5.35;;;;;;;17.58;70.51;96846.12;127822;1093;114040;-87
2021/06/19 02:16:21;;;;;;;6.15;5.55;;;;;;;17.65;70.49;96849.13;127918;1092;23801;-88
2021/06/19 02:18:52;;;;;;;6.13;4.93;;;;;;;17.74;70.06;96855.30;127824;1093;114079;-89
2021/06/19 02:21:24;;;;;;;5.45;4.43;;;;;;;17.83;69.76;96849.12;127930;1093;22823;-86
2021/06/19 02:23:55;;;;;;;4.90;4.43;;;;;;;17.66;69.58;96850.69;127784;1092;28360;-86
2021/06/19 02:26:27;;;;;;;5.55;4.50;;;;;;;17.55;69.56;96862.84;127763;1093;113516;-90
2021/06/19 02:28:58;;;;;;;6.57;4.80;;;;;;;17.63;69.75;96862.06;127761;1093;24147;-89
2021/06/19 02:31:30;;;;;;;7.40;4.53;;;;;;;17.68;69.58;96856.55;127803;1093;114111;-89
2021/06/19 02:34:01;;;;;;;5.73;4.50;;;;;;;17.77;69.70;96848.51;127928;1093;22799;-88
2021/06/19 02:36:32;;;;;;;5.98;4.40;;;;;;;17.83;69.43;96851.80;127848;1092;52721;-91
2021/06/19 02:39:04;;;;;;;7.85;4.83;;;;;;;17.84;69.09;96848.01;127781;1092;114044;-91
2021/06/19 02:41:35;;;;;;;7.08;5.20;;;;;;;17.76;69.04;96846.94;127868;1093;43428;-88
2021/06/19 02:44:07;;;;;;;4.88;4.33;;;;;;;17.60;68.99;96846.61;127826;1093;114299;-89
2021/06/19 02:46:38;;;;;;;5.68;4.73;;;;;;;17.60;68.88;96846.61;127937;1093;27326;-88
2021/06/19 02:49:10;;;;;;;6.50;5.05;;;;;;;17.57;68.97;96849.12;127782;1091;113691;-87
2021/06/19 02:51:41;;;;;;;4.90;4.33;;;;;;;17.56;69.32;96842.97;127906;1093;25741;-88
2021/06/19 02:54:13;;;;;;;6.00;4.93;;;;;;;17.55;69.40;96833.35;127931;1093;45580;-86
2021/06/19 02:56:44;;;;;;;6.25;4.90;;;;;;;17.51;69.46;96841.25;127897;1093;113930;-90
2021/06/19 02:59:16;;;;;;;5.67;4.80;;;;;;;17.46;69.67;96837.95;127906;1092;61801;-87
2021/06/19 03:01:47;;;;;;;6.53;5.15;;;;;;;17.43;69.81;96833.20;127906;1093;112507;-89
2021/06/19 03:04:20;;;;;;;5.43;4.30;;;;;;;17.36;70.01;96835.59;127900;1093;51518;-87
2021/06/19 03:06:52;;;;;;;4.93;4.43;;;;;;;17.37;70.21;96845.20;127890;1092;113941;-89
2021/06/19 03:09:23;;;;;;;5.35;4.40;;;;;;;17.37;70.10;96853.23;127873;1092;52242;-88
2021/06/19 03:11:54;;;;;;;8.65;5.05;;;;;;;17.02;69.98;96850.52;127947;1093;26245;-89
2021/06/19 03:14:26;;;;;;;5.78;5.10;;;;;;;16.97;70.31;96848.00;127766;1093;114093;-88
2021/06/19 03:16:57;;;;;;;7.08;5.50;;;;;;;16.99;70.54;96853.83;127980;1093;23457;-93
2021/06/19 03:19:30;;;;;;;8.43;5.55;;;;;;;17.03;71.08;96856.67;127820;1093;113537;-95
2021/06/19 03:22:02;;;;;;;5.63;4.83;;;;;;;17.18;71.06;96858.92;127955;1093;28421;-95
2021/06/19 03:24:39;;;;;;;6.83;4.90;;;;;;;17.28;71.13;96858.59;127870;1093;32528;-94
2021/06/19 03:27:13;;;;;;;6.78;4.35;;;;;;;17.40;71.18;96863.32;127765;1093;113519;-95
2021/06/19 03:29:44;;;;;;;5.25;4.38;;;;;;;17.51;71.04;96862.70;127867;1093;32031;-95
2021/06/19 03:32:16;;;;;;;5.28;4.78;;;;;;;17.58;70.84;96877.50;127809;1093;113506;-93
2021/06/19 03:34:47;;;;;;;6.08;4.80;;;;;;;17.61;71.01;96872.31;127920;1093;30756;-95
2021/06/19 03:37:18;;;;;;;7.00;5.43;;;;;;;17.67;71.39;96875.61;127765;1093;114567;-94
2021/06/19 03:39:50;;;;;;;8.28;5.08;;;;;;;17.78;71.10;96875.00;127873;1093;27106;-94
2021/06/19 03:42:22;;;;;;;8.13;5.47;;;;;;;17.86;71.13;96873.40;127899;1093;25778;-94
2021/06/19 03:44:53;;;;;;;7.43;5.75;;;;;;;17.97;71.24;96873.86;127825;1092;113554;-93
2021/06/19 03:47:25;;;;;;;5.87;5.27;;;;;;;18.07;71.00;96860.11;127852;1093;56986;-95
2021/06/19 03:49:56;;;;;;;6.13;5.38;;;;;;;18.15;70.95;96867.33;127823;1093;113471;-94
2021/06/19 03:52:27;;;;;;;7.15;5.58;;;;;;;18.21;70.96;96867.97;127906;1093;25100;-90
2021/06/19 03:54:59;;;;;;;8.03;5.50;;;;;;;18.30;70.87;96861.47;127756;1092;113643;-91
2021/06/19 03:57:32;;;;;;;7.60;5.23;;;;;;;18.36;70.72;96873.59;127899;1093;26322;-88
2021/06/19 04:00:05;;;;;;;5.93;5.30;;;;;;;18.37;71.02;96871.69;127876;1093;26351;-93
2021/06/19 04:02:36;;;;;;;7.23;5.63;;;;;;;18.36;71.01;96867.44;127782;1091;114143;-95
2021/06/19 04:05:10;;;;;;;6.37;5.43;;;;;;;18.36;70.96;96862.86;127803;1092;30074;-90
2021/06/19 04:07:42;;;;;;;6.95;5.78;;;;;;;18.47;71.17;96862.50;127699;1093;113509;-93
2021/06/19 04:10:15;;;;;;;6.78;5.85;;;;;;;18.54;71.00;96865.46;127968;1093;30772;-94
2021/06/19 04:12:59;;;;;;;6.75;5.40;;;;;;;18.58;71.20;96855.64;128043;1093;37472;-93
2021/06/19 04:15:31;;;;;;;6.10;5.50;;;;;;;18.71;71.01;96857.34;127935;1093;113497;-87
2021/06/19 04:18:02;;;;;;;7.83;5.85;;;;;;;18.86;71.42;96854.13;127881;1093;42550;-91
2021/06/19 04:20:34;;;;;;;7.05;5.80;;;;;;;19.00;71.46;96848.48;127795;1093;113871;-91
2021/06/19 04:23:05;;;;;;;9.20;5.40;;;;;;;19.09;71.22;96845.74;127880;1093;25817;-92
2021/06/19 04:25:37;;;;;;;6.63;5.55;;;;;;;19.22;71.48;96847.39;127813;1093;113834;-93
2021/06/19 04:28:08;;;;;;;6.70;5.18;;;;;;;19.34;71.39;96838.61;127830;1093;54442;-91
2021/06/19 04:30:40;;;;;;;7.40;5.38;;;;;;;19.45;71.59;96840.57;127892;1091;24605;-92
2021/06/19 04:33:11;;;;;;;6.90;5.80;;;;;;;19.59;71.46;96844.91;127778;1093;113493;-91
2021/06/19 04:35:42;;;;;;;6.88;5.83;;;;;;;19.70;71.01;96844.15;127935;1093;24150;-87
2021/06/19 04:38:14;;;;;;;7.30;5.78;;;;;;;19.84;70.86;96838.48;127848;1093;113830;-89
2021/06/19 04:40:50;;;;;;;6.35;5.40;;;;;;;19.96;70.42;96837.73;127943;1093;26880;-90
2021/06/19 04:43:27;;;;;;;6.95;5.80;;;;;;;20.05;69.86;96841.91;127788;1093;113668;-89
2021/06/19 04:45:59;;;;;;;8.75;5.88;;;;;;;20.13;69.63;96843.73;128059;1093;25700;-88
2021/06/19 04:48:30;;;;;;;7.37;6.30;;;;;;;20.21;69.15;96838.57;127999;1091;24499;-89
2021/06/19 04:51:01;;;;;;;8.45;5.63;;;;;;;20.26;69.32;96841.81;127829;1092;114201;-89
2021/06/19 04:53:33;;;;;;;7.63;6.25;;;;;;;20.29;69.22;96840.39;127876;1092;22804;-91
2021/06/19 04:56:06;;;;;;;6.65;5.40;;;;;;;20.34;68.74;96845.55;127801;1093;114379;-91
2021/06/19 04:58:38;;;;;;;8.18;6.05;;;;;;;20.44;68.85;96851.31;127872;1091;26856;-89
2021/06/19 05:01:09;;;;;;;8.48;5.85;;;;;;;20.55;68.03;96858.92;127785;1092;113697;-90
2021/06/19 05:03:41;;;;;;;7.90;5.33;;;;;;;20.55;67.52;96859.73;127869;1093;24047;-91
2021/06/19 05:06:12;;;;;;;7.80;5.95;;;;;;;20.58;67.61;96850.20;127862;1093;22776;-90
2021/06/19 05:08:44;;;;;;;9.08;5.98;;;;;;;20.70;67.62;96842.12;127762;1093;113815;-90
2021/06/19 05:11:15;;;;;;;7.45;6.00;;;;;;;20.89;66.93;96850.40;127956;1091;22780;-89
2021/06/19 05:13:48;;;;;;;7.47;5.90;;;;;;;21.08;66.27;96839.02;127861;1093;113737;-89
2021/06/19 05:16:19;;;;;;;7.63;6.00;;;;;;;21.27;66.68;96839.24;127908;1093;25887;-88
2021/06/19 05:18:51;;;;;;;6.50;5.58;;;;;;;21.51;66.24;96845.66;127869;1093;26726;-91
2021/06/19 05:21:22;;;;;;;6.18;5.58;;;;;;;21.81;66.29;96843.40;127774;1093;112790;-88
2021/06/19 05:23:53;;;;;;;6.85;5.40;;;;;;;22.20;65.66;96850.64;127863;1093;28388;-89
2021/06/19 05:26:25;;;;;;;8.23;5.20;;;;;;;22.89;64.54;96853.86;127764;1092;114087;-91
2021/06/19 05:28:56;;;;;;;6.63;5.48;;;;;;;23.66;64.07;96848.58;127903;1092;22826;-88
2021/06/19 05:31:28;;;;;;;7.53;5.65;;;;;;;24.44;62.72;96849.21;127764;1093;114039;-89
2021/06/19 05:34:01;;;;;;;6.03;5.43;;;;;;;25.05;61.22;96847.44;127873;1093;25221;-92
2021/06/19 05:36:33;;;;;;;7.08;5.30;;;;;;;25.84;60.60;96841.09;127854;1093;22796;-89
2021/06/19 05:39:06;;;;;;;5.37;4.33;;;;;;;26.78;59.26;96838.86;127727;1093;113484;-88
2021/06/19 05:41:38;;;;;;;5.35;4.13;;;;;;;27.65;57.42;96828.08;127897;1093;26375;-91
2021/06/19 05:44:10;;;;;;;5.98;4.23;;;;;;;28.56;55.60;96829.41;127753;1093;114095;-89
2021/06/19 05:46:41;;;;;;;5.00;4.10;;;;;;;28.63;53.48;96834.87;127852;1093;27481;-89
2021/06/19 05:49:13;;;;;;;4.55;4.15;;;;;;;29.08;52.55;96827.03;127757;1093;113626;-91
2021/06/19 05:51:45;;;;;;;5.53;4.30;;;;;;;29.49;50.66;96826.53;127897;1093;31954;-90
2021/06/19 05:54:16;;;;;;;6.23;3.83;;;;;;;29.98;49.84;96828.25;127915;1093;25883;-89
2021/06/19 05:56:48;;;;;;;4.17;3.60;;;;;;;30.55;50.05;96827.09;127804;1093;113543;-92
2021/06/19 05:59:19;;;;;;;4.13;3.73;;;;;;;31.02;47.53;96828.23;127946;1093;23600;-89
2021/06/19 06:01:51;;;;;;;4.93;3.60;;;;;;;31.06;46.56;96823.48;127786;1092;114279;-90
2021/06/19 06:04:23;;;;;;;3.73;3.15;;;;;;;31.26;45.81;96819.01;127844;1093;26800;-90
2021/06/19 06:06:54;;;;;;;7.00;3.35;;;;;;;31.76;45.15;96821.14;127859;1093;28076;-89
2021/06/19 06:09:26;;;;;;;4.67;3.80;;;;;;;32.15;44.56;96828.83;127785;1093;113552;-89
2021/06/19 06:11:58;;;;;;;7.43;3.10;;;;;;;32.50;43.57;96834.97;127860;1093;29939;-90
2021/06/19 06:14:30;;;;;;;4.15;3.38;;;;;;;32.71;42.20;96837.38;127781;1093;113528;-90
2021/06/19 06:17:01;;;;;;;4.10;2.88;;;;;;;32.17;41.85;96837.41;127859;1093;24449;-90
2021/06/19 06:19:33;;;;;;;3.53;3.20;;;;;;;32.68;42.33;96838.22;127756;1093;113685;-90
2021/06/19 06:22:07;;;;;;;4.28;2.95;;;;;;;33.13;41.08;96840.59;127927;1092;23135;-89
2021/06/19 06:24:38;;;;;;;4.85;3.23;;;;;;;33.00;40.83;96834.16;127889;1091;25145;-92
2021/06/19 06:27:11;;;;;;;7.75;3.20;;;;;;;33.40;40.73;96839.72;127760;1093;113713;-94
2021/06/19 06:29:42;;;;;;;7.83;3.43;;;;;;;33.51;40.39;96843.03;127804;1093;38583;-90
2021/06/19 06:32:14;;;;;;;3.75;3.05;;;;;;;33.56;39.97;96846.05;127759;1093;113691;-91
2021/06/19 06:34:45;;;;;;;4.45;3.53;;;;;;;33.82;39.60;96852.59;127954;1093;39050;-95
2021/06/19 06:37:17;;;;;;;3.85;2.90;;;;;;;34.06;38.75;96853.25;127948;1093;113674;-95
2021/06/19 06:39:49;;;;;;;4.55;3.28;;;;;;;33.14;38.31;96850.38;127777;1093;36880;-91
2021/06/19 06:42:21;;;;;;;5.05;3.08;;;;;;;33.30;38.64;96852.43;125525;1093;2661561;-93
2021/06/19 06:44:53;;;;;;;6.75;3.48;;;;;;;33.98;38.44;96851.10;127656;1093;115439;-93
2021/06/19 06:47:24;;;;;;;7.43;3.65;;;;;;;34.35;37.85;96841.63;127930;1093;22810;-92
2021/06/19 06:49:56;;;;;;;3.65;2.93;;;;;;;34.79;37.80;96846.45;127781;1093;113748;-92
2021/06/19 06:52:27;;;;;;;3.10;2.68;;;;;;;35.32;36.65;96847.03;127886;1093;23009;-94
2021/06/19 06:54:58;;;;;;;5.98;3.13;;;;;;;35.20;35.84;96850.53;127844;1092;37569;-91
2021/06/19 06:57:30;;;;;;;3.50;2.55;;;;;;;34.54;34.58;96846.29;127770;1093;113845;-89
2021/06/19 07:00:02;;;;;;;4.48;3.13;;;;;;;33.79;34.69;96847.94;127889;1093;37701;-94
2021/06/19 07:02:34;;;;;;;5.15;2.68;;;;;;;33.64;36.66;96847.47;127807;1093;114070;-90
2021/06/19 07:05:06;;;;;;;4.13;3.10;;;;;;;34.50;36.75;96845.61;127943;1093;22773;-87
2021/06/19 07:07:38;;;;;;;6.13;2.95;;;;;;;35.32;36.45;96851.77;127779;1092;112882;-86
2021/06/19 07:10:13;;;;;;;4.48;3.15;;;;;;;35.48;34.37;96854.52;127921;1093;23984;-86
2021/06/19 07:12:45;;;;;;;4.68;3.20;;;;;;;35.21;35.10;96857.59;127971;1093;22780;-84
2021/06/19 07:15:19;;;;;;;4.20;3.28;;;;;;;35.66;35.33;96854.78;127884;1092;113552;-82
2021/06/19 07:17:51;;;;;;;3.13;2.83;;;;;;;36.23;35.24;96853.10;127987;1093;26289;-85
2021/06/19 07:20:24;;;;;;;4.25;3.35;;;;;;;36.18;32.92;96858.41;127775;1093;113500;-91
2021/06/19 07:22:55;;;;;;;5.95;3.33;;;;;;;35.54;34.15;96858.28;127893;1093;26646;-94
2021/06/19 07:25:27;;;;;;;4.05;3.30;;;;;;;35.68;33.81;96854.34;127768;1092;114249;-87
2021/06/19 07:27:59;;;;;;;6.88;3.23;;;;;;;34.63;33.69;96857.48;127915;1092;55567;-87
2021/06/19 07:30:30;;;;;;;4.40;3.13;;;;;;;34.78;34.06;96846.89;127895;1093;22799;-90
2021/06/19 07:33:02;;;;;;;4.08;3.35;;;;;;;35.21;35.11;96863.11;127761;1093;114837;-89
2021/06/19 07:35:34;;;;;;;5.48;3.40;;;;;;;35.30;34.91;96860.48;127947;1092;22826;-86
2021/06/19 07:38:07;;;;;;;3.55;3.23;;;;;;;35.84;35.31;96848.73;128431;1093;112430;-96
2021/06/19 07:40:41;;;;;;;4.90;3.83;;;;;;;35.59;34.18;96854.20;128025;1093;42869;-96
2021/06/19 07:43:12;;;;;;;6.35;3.68;;;;;;;35.65;34.33;96857.98;127810;1093;113751;-95
2021/06/19 07:45:44;;;;;;;5.78;4.30;;;;;;;35.78;34.18;96847.75;127887;1093;23942;-94
2021/06/19 07:48:15;;;;;;;6.23;3.50;;;;;;;35.90;34.49;96849.02;128030;1093;22820;-91
2021/06/19 07:50:47;;;;;;;5.25;3.75;;;;;;;36.02;33.71;96855.73;127876;1093;113599;-92
2021/06/19 07:53:21;;;;;;;4.25;3.28;;;;;;;36.21;34.56;96849.24;127992;1093;26258;-91
2021/06/19 07:55:53;;;;;;;5.53;3.70;;;;;;;36.68;34.31;96849.32;127812;1092;113888;-90
2021/06/19 07:58:24;;;;;;;5.98;3.80;;;;;;;37.08;34.30;96844.05;127895;1093;25343;-92
2021/06/19 08:00:56;;;;;;;7.78;3.85;;;;;;;37.40;33.33;96840.16;127889;1093;24428;-93
2021/06/19 08:03:27;;;;;;;5.05;3.50;;;;;;;37.65;33.25;96842.02;127767;1093;113514;-91
2021/06/19 08:05:59;;;;;;;4.43;2.80;;;;;;;37.52;30.95;96841.33;127905;1093;25493;-91
2021/06/19 08:08:30;;;;;;;4.33;2.50;;;;;;;35.96;29.98;96838.96;127843;1093;113547;-93
2021/06/19 08:11:02;;;;;;;4.38;2.53;;;;;;;35.21;32.05;96837.53;127857;1092;27694;-91
2021/06/19 08:13:33;;;;;;;6.55;2.58;;;;;;;35.09;32.91;96842.55;127789;1093;114408;-92
2021/06/19 08:16:05;;;;;;;5.53;2.70;;;;;;;35.80;33.43;96842.56;127878;1093;23931;-91
2021/06/19 08:18:37;;;;;;;6.43;3.30;;;;;;;36.46;32.19;96843.73;127831;1093;25788;-92
2021/06/19 08:21:09;;;;;;;6.83;3.05;;;;;;;36.86;32.88;96832.94;127790;1093;114085;-88
2021/06/19 08:23:40;;;;;;;4.45;2.80;;;;;;;37.48;32.48;96831.62;127904;1092;23299;-87
2021/06/19 08:26:12;;;;;;;5.80;2.80;;;;;;;38.00;30.90;96834.38;127782;1093;113658;-88
2021/06/19 08:28:43;;;;;;;5.20;3.00;;;;;;;37.70;30.17;96837.89;127905;1093;27424;-86
2021/06/19 08:31:15;;;;;;;4.43;2.70;;;;;;;37.89;31.40;96839.58;127817;1093;114362;-88
2021/06/19 08:33:47;;;;;;;3.73;2.70;;;;;;;38.36;30.89;96838.55;127960;1093;58086;-88
2021/06/19 08:36:18;;;;;;;4.80;2.80;;;;;;;38.60;29.61;96833.23;128077;1093;33119;-89
2021/06/19 08:38:50;;;;;;;2.83;2.53;;;;;;;38.71;29.48;96830.83;127908;1092;113845;-87
2021/06/19 08:41:21;;;;;;;3.98;2.75;;;;;;;38.79;29.60;96829.28;127980;1093;27738;-87
2021/06/19 08:43:53;;;;;;;3.48;2.75;;;;;;;39.09;29.92;96826.86;127740;1092;114215;-88
2021/06/19 08:46:26;;;;;;;4.43;2.75;;;;;;;39.10;28.51;96822.84;127907;1093;22914;-89
2021/06/19 08:48:58;;;;;;;4.55;2.90;;;;;;;38.57;29.25;96817.50;127900;1093;24687;-88
2021/06/19 08:51:30;;;;;;;5.23;3.03;;;;;;;38.22;29.44;96812.20;127740;1093;113306;-90
2021/06/19 08:54:01;;;;;;;7.30;3.15;;;;;;;37.35;29.22;96812.33;127931;1093;23089;-89
2021/06/19 08:56:33;;;;;;;5.03;3.45;;;;;;;36.69;30.53;96801.14;127862;1092;113883;-88
2021/06/19 08:59:05;;;;;;;2.80;2.50;;;;;;;35.53;28.35;96811.84;127899;1092;26524;-89
2021/06/19 09:01:38;;;;;;;3.10;2.45;;;;;;;33.76;30.20;96812.24;127831;1093;113945;-90
2021/06/19 09:04:10;;;;;;;3.40;3.10;;;;;;;32.70;31.02;96819.35;127921;1093;25693;-90
2021/06/19 09:06:43;;;;;;;4.85;3.23;;;;;;;31.93;32.50;96811.11;127812;1093;30595;-90
2021/06/19 09:09:16;;;;;;;4.98;3.43;;;;;;;31.35;33.63;96809.50;127635;1093;113915;-90
2021/06/19 09:11:48;;;;;;;4.05;2.93;;;;;;;30.88;34.19;96811.95;128011;1092;26318;-91
2021/06/19 09:14:23;;;;;;;3.60;3.03;;;;;;;30.21;35.49;96807.80;127873;1092;113607;-90
2021/06/19 09:17:02;;;;;;;4.35;3.08;;;;;;;30.03;36.23;96803.21;127925;1092;26848;-93
2021/06/19 09:19:35;;;;;;;6.15;3.20;;;;;;;29.82;36.54;96798.64;127812;1092;113757;-93
2021/06/19 09:22:15;;;;;;;4.13;3.05;;;;;;;29.93;36.81;96801.31;127950;1093;29166;-92
2021/06/19 09:24:50;;;;;;;3.38;2.80;;;;;;;29.74;36.94;96804.56;127780;1093;26288;-92
2021/06/19 09:27:36;;;;;;;3.45;2.70;;;;;;;29.29;36.80;96809.03;127837;1093;113656;-90
2021/06/19 09:30:15;;;;;;;5.27;2.93;;;;;;;29.07;37.87;96803.63;127987;1093;25466;-90
2021/06/19 09:32:49;;;;;;;5.35;3.70;;;;;;;28.89;37.80;96809.14;127839;1092;114196;-89
2021/06/19 09:35:24;;;;;;;7.58;3.60;;;;;;;28.98;38.81;96805.98;127978;1093;23042;-91
2021/06/19 09:37:58;;;;;;;4.38;3.18;;;;;;;29.11;39.30;96809.85;127814;1093;113508;-89
2021/06/19 09:40:35;;;;;;;4.15;3.13;;;;;;;29.34;38.88;96805.89;127891;1093;24069;-87
2021/06/19 09:43:13;;;;;;;5.23;3.47;;;;;;;29.26;39.40;96805.90;127759;1093;113999;-93
2021/06/19 09:45:59;;;;;;;3.23;2.60;;;;;;;29.61;39.62;96809.70;127852;1093;36509;-90
2021/06/19 09:48:33;;;;;;;4.55;3.70;;;;;;;29.37;39.67;96803.13;128126;1093;45779;-88
2021/06/19 09:51:20;;;;;;;5.25;3.48;;;;;;;29.40;40.04;96788.67;127898;1093;113649;-86
2021/06/19 09:53:53;;;;;;;3.38;2.95;;;;;;;29.76;40.23;96791.27;128238;1093;22932;-87
2021/06/19 09:56:25;;;;;;;4.25;3.40;;;;;;;30.10;40.75;96783.26;127701;1093;114186;-86
2021/06/19 09:58:57;;;;;;;4.60;3.65;;;;;;;30.12;38.85;96783.63;127861;1093;22802;-86
2021/06/19 10:01:38;;;;;;;6.50;3.13;;;;;;;29.86;39.79;96787.70;127908;1092;114217;-87
2021/06/19 10:04:11;;;;;;;7.18;3.28;;;;;;;29.63;38.81;96790.17;128104;1091;27054;-85
2021/06/19 10:06:43;;;;;;;4.13;3.10;;;;;;;29.41;39.14;96795.70;128026;1093;49643;-88
2021/06/19 10:09:15;;;;;;;4.23;3.35;;;;;;;29.04;39.12;96788.05;128026;1093;113666;-88
2021/06/19 10:11:50;;;;;;;4.98;3.00;;;;;;;28.94;40.41;96783.39;127887;1093;162310;-87
2021/06/19 10:14:24;;;;;;;3.75;3.20;;;;;;;28.76;40.14;96783.41;127968;1093;114428;-88
2021/06/19 10:16:58;;;;;;;4.98;3.10;;;;;;;28.74;40.17;96788.48;128123;1092;51104;-88
2021/06/19 10:19:30;;;;;;;3.40;3.00;;;;;;;28.65;39.88;96783.41;128090;1092;114243;-86
2021/06/19 10:22:02;;;;;;;3.58;2.43;;;;;;;28.78;40.48;96783.01;127966;1092;27687;-88
2021/06/19 10:24:33;;;;;;;3.85;2.60;;;;;;;28.81;39.08;96774.81;128022;1092;33233;-87
2021/06/19 10:27:07;;;;;;;5.03;3.10;;;;;;;28.91;39.45;96775.99;128228;1092;113545;-87
2021/06/19 10:29:39;;;;;;;3.08;2.63;;;;;;;29.12;39.68;96783.33;128370;1092;22843;-87
2021/06/19 10:32:12;;;;;;;4.63;2.80;;;;;;;29.16;38.53;96773.19;128015;1093;113661;-87
2021/06/19 10:34:53;;;;;;;3.45;2.60;;;;;;;29.20;39.12;96773.95;128280;1093;22864;-87
2021/06/19 10:37:32;;;;;;;3.33;2.65;;;;;;;29.40;39.31;96766.05;128042;1093;114062;-88
2021/06/19 10:40:19;;;;;;;2.70;2.28;;;;;;;29.38;38.48;96780.11;128225;1092;27235;-87
2021/06/19 10:42:53;;;;;;;3.50;2.95;;;;;;;29.16;37.74;96773.19;128238;1093;25695;-89
2021/06/19 10:45:30;;;;;;;5.15;3.28;;;;;;;28.92;38.57;96772.09;128046;1093;113874;-88
2021/06/19 10:48:06;;;;;;;4.53;3.30;;;;;;;28.99;38.97;96772.05;128160;1093;27867;-87
2021/06/19 10:50:40;;;;;;;5.53;3.37;;;;;;;28.91;38.79;96767.80;128037;1092;113566;-87
2021/06/19 10:53:13;;;;;;;4.48;3.23;;;;;;;29.02;38.48;96757.64;128119;1092;24817;-87
2021/06/19 10:55:57;;;;;;;4.23;2.98;;;;;;;28.88;38.60;96768.59;127827;1093;113849;-87
2021/06/19 10:58:31;;;;;;;4.40;3.45;;;;;;;28.78;39.52;96758.45;127941;1093;22855;-89
2021/06/19 11:01:03;;;;;;;5.73;3.65;;;;;;;28.94;40.07;96751.41;127753;1093;25545;-87
2021/06/19 11:03:49;;;;;;;3.50;3.00;;;;;;;29.04;40.16;96754.52;127985;1093;114182;-87
2021/06/19 11:06:28;;;;;;;3.87;3.33;;;;;;;29.21;40.26;96753.66;128071;1093;23881;-87
2021/06/19 11:09:13;;;;;;;5.23;3.30;;;;;;;29.25;39.94;96751.69;127701;1091;113838;-87
2021/06/19 11:11:59;;;;;;;6.33;3.63;;;;;;;29.29;40.00;96752.47;127828;1093;22895;-89
2021/06/19 11:15:04;;;;;;;5.40;3.73;;;;;;;29.17;40.11;96748.22;127771;1092;113616;-87
2021/06/19 11:17:49;;;;;;;4.78;3.20;;;;;;;29.26;40.62;96750.50;127916;1092;22882;-87
2021/06/19 11:20:31;;;;;;;5.18;3.58;;;;;;;29.31;40.50;96743.88;127748;1093;113890;-87
2021/06/19 11:23:08;;;;;;;3.23;2.93;;;;;;;29.11;40.48;96740.82;127830;1093;24713;-86
2021/06/19 11:28:41;;;;;;;4.68;3.70;;;;;;;29.06;40.07;96741.24;127864;1093;22969;-88
2021/06/19 11:31:22;;;;;;;4.67;3.53;;;;;;;28.86;40.38;96738.17;127689;1093;114239;-87
2021/06/19 11:33:55;;;;;;;5.23;3.65;;;;;;;28.82;41.53;96731.92;128038;1093;22812;-87
2021/06/19 11:36:42;;;;;;;6.65;3.63;;;;;;;28.98;40.97;96732.28;127831;1092;24193;-87
2021/06/19 11:39:18;;;;;;;6.00;3.58;;;;;;;29.08;41.06;96738.89;127960;1093;114570;-86
2021/06/19 11:41:51;;;;;;;4.80;3.30;;;;;;;29.06;41.33;96735.78;127925;1093;23176;-87
2021/06/19 11:44:34;;;;;;;3.93;3.37;;;;;;;29.11;41.18;96733.41;127673;1093;114225;-88
2021/06/19 11:47:09;;;;;;;5.10;3.58;;;;;;;29.23;41.19;96727.50;127914;1093;23881;-88
2021/06/19 11:49:44;;;;;;;4.75;3.50;;;;;;;29.11;40.63;96722.48;127822;1093;113948;-86
2021/06/19 11:52:20;;;;;;;4.05;3.43;;;;;;;29.01;41.19;96722.55;127827;1092;27049;-88